Time;durP1;ratioP1;P1;durP2;ratioP2;P2;SDS_P1;SDS_P2;PMS_P1;PMS_P2;Temp;Humidity;BMP_temperature;BMP_pressure;BME280_temperature;BME280_humidity;BME280_pressure;Samples;Min_cycle;Max_cycle;Signal;HPM_P1;HPM_P2
2024/03/24 06:23:53;;;;;;;5.70;1.50;;;;;;;1.75;96.71;95824.81;2091903;28;20577;-63
2024/03/24 06:24:54;;;;;;;4.05;2.00;;;;;;;1.84;96.32;95821.19;2088279;28;20548;-63
2024/03/24 06:29:09;;;;;;;2.97;1.60;;;;;;;2.05;96.37;95826.72;2084704;28;20567;-62
2024/03/24 07:05:19;;;;;;;6.70;2.50;;;;;;;2.68;87.92;95838.00;2075919;27;1226516;-64
2024/03/24 07:14:58;;;;;;;4.53;1.55;;;;;;;2.83;86.79;95836.75;2092979;28;20556;-65
2024/03/24 07:17:15;;;;;;;2.95;1.77;;;;;;;3.29;84.41;95828.59;2095862;27;20571;-64
2024/03/24 07:19:06;;;;;;;15.45;6.63;;;;;;;3.42;83.24;95802.38;2097506;27;20550;-63
2024/03/24 07:20:58;;;;;;;3.05;1.42;;;;;;;3.71;82.58;95813.56;2090630;27;20562;-64
2024/03/24 07:21:59;;;;;;;1.70;0.90;;;;;;;3.86;81.60;95813.97;2078137;28;20232;-65
2024/03/24 07:22:59;;;;;;;2.80;1.23;;;;;;;4.16;80.89;95799.25;2064356;28;20516;-65
2024/03/24 07:24:00;;;;;;;6.20;1.53;;;;;;;4.28;78.96;95805.75;2069503;28;20206;-65
2024/03/24 07:25:01;;;;;;;5.95;1.20;;;;;;;4.59;79.22;95799.53;2057596;28;20225;-65
2024/03/24 07:26:03;;;;;;;4.10;1.20;;;;;;;4.61;77.52;95796.91;2058214;28;20206;-64
2024/03/24 07:27:03;;;;;;;3.05;0.90;;;;;;;4.47;77.29;95784.44;2071067;28;20593;-64
2024/03/24 07:28:04;;;;;;;2.60;1.00;;;;;;;4.46;77.62;95782.78;2068764;28;20213;-64
2024/03/24 07:29:05;;;;;;;2.80;1.00;;;;;;;4.72;78.39;95787.88;2061897;28;20453;-64
2024/03/24 07:30:09;;;;;;;3.00;1.10;;;;;;;4.95;77.08;95781.06;2061949;28;20210;-65
2024/03/24 07:31:09;;;;;;;4.65;1.13;;;;;;;5.11;75.76;95783.09;2069927;28;20533;-65
2024/03/24 07:32:10;;;;;;;2.07;1.03;;;;;;;5.07;76.04;95787.53;2072088;28;20224;-64
2024/03/24 07:33:16;;;;;;;2.37;1.20;;;;;;;5.27;75.97;95797.16;2064317;28;20712;-65
2024/03/24 07:34:17;;;;;;;6.35;1.58;;;;;;;5.20;74.54;95782.72;2064716;28;20202;-65
2024/03/24 07:35:17;;;;;;;3.80;1.27;;;;;;;5.33;75.29;95788.28;2065530;28;20707;-66
2024/03/24 07:36:18;;;;;;;4.90;1.10;;;;;;;5.53;74.30;95788.38;2067055;28;20233;-64
2024/03/24 07:37:19;;;;;;;3.60;1.20;;;;;;;5.51;72.78;95797.09;2064820;28;20241;-63
2024/03/24 07:38:19;;;;;;;3.30;1.05;;;;;;;5.51;72.34;95794.50;2075038;28;20213;-65
2024/03/24 07:39:20;;;;;;;4.23;0.90;;;;;;;5.62;72.78;95789.75;2066183;28;20201;-64
2024/03/24 07:40:22;;;;;;;3.97;1.30;;;;;;;5.96;72.83;95793.63;2056122;28;20753;-65
2024/03/24 07:41:23;;;;;;;2.90;1.00;;;;;;;5.83;72.45;95795.03;2057766;28;20453;-65
2024/03/24 07:42:23;;;;;;;4.23;1.00;;;;;;;5.95;73.03;95798.88;2056280;28;20207;-65
2024/03/24 07:43:24;;;;;;;5.07;1.70;;;;;;;6.11;72.46;95802.56;2067229;28;20804;-66
2024/03/24 07:44:24;;;;;;;3.97;1.17;;;;;;;5.98;72.09;95796.16;2066088;28;20230;-65
2024/03/24 07:45:25;;;;;;;5.70;0.80;;;;;;;6.00;71.76;95796.97;2067062;28;20657;-66
2024/03/24 07:46:26;;;;;;;4.73;1.20;;;;;;;6.15;71.01;95785.16;2066093;28;20242;-65
2024/03/24 07:47:26;;;;;;;8.00;1.23;;;;;;;6.16;70.17;95792.88;2064892;28;20962;-64
2024/03/24 07:48:27;;;;;;;9.27;3.50;;;;;;;6.21;69.57;95788.34;2066192;28;20254;-64
2024/03/24 07:49:28;;;;;;;7.32;3.42;;;;;;;6.44;70.32;95806.44;2060594;28;20219;-65
2024/03/24 07:50:29;;;;;;;10.87;4.37;;;;;;;6.08;69.26;95812.22;2060512;28;20212;-63
2024/03/24 07:51:31;;;;;;;7.50;3.30;;;;;;;6.08;70.80;95796.66;2058642;28;20376;-66
2024/03/24 07:52:31;;;;;;;14.07;6.30;;;;;;;5.93;71.59;95800.69;2057899;28;20438;-67
2024/03/24 07:53:32;;;;;;;16.47;7.40;;;;;;;5.52;71.99;95791.03;2063442;28;20680;-66
2024/03/24 07:54:32;;;;;;;9.80;4.93;;;;;;;5.33;72.81;95796.91;2064130;28;20214;-66
2024/03/24 07:55:33;;;;;;;10.43;3.00;;;;;;;5.17;73.84;95788.03;2064788;28;20210;-67
2024/03/24 07:56:34;;;;;;;6.93;1.27;;;;;;;4.83;75.07;95789.25;2062184;28;20419;-67
2024/03/24 07:57:34;;;;;;;2.55;1.35;;;;;;;4.65;74.82;95786.41;2065219;28;20210;-67
2024/03/24 07:58:35;;;;;;;2.77;1.10;;;;;;;4.56;75.21;95786.75;2073711;28;20875;-67
2024/03/24 07:59:36;;;;;;;3.63;1.10;;;;;;;4.55;76.35;95795.38;2064183;28;20312;-66
2024/03/24 08:00:37;;;;;;;2.80;0.95;;;;;;;4.68;76.24;95788.88;2064746;28;20232;-67
2024/03/24 08:01:37;;;;;;;2.40;1.20;;;;;;;4.75;74.89;95797.28;2064250;28;20258;-66
2024/03/24 08:02:38;;;;;;;2.37;1.33;;;;;;;4.83;75.38;95797.00;2061453;28;20215;-67
2024/03/24 08:03:39;;;;;;;4.33;1.73;;;;;;;4.84;75.73;95791.78;2053047;28;20211;-67
2024/03/24 08:04:39;;;;;;;3.70;1.60;;;;;;;4.80;75.63;95794.50;2061314;28;20452;-67
2024/03/24 08:05:40;;;;;;;5.17;1.17;;;;;;;4.54;74.43;95804.88;2064031;28;20202;-67
2024/03/24 08:06:43;;;;;;;2.75;1.10;;;;;;;4.73;75.44;95794.72;2062647;28;20202;-68
2024/03/24 08:07:43;;;;;;;5.18;1.00;;;;;;;4.83;74.93;95799.59;2063202;28;20219;-67
2024/03/24 08:08:44;;;;;;;1.73;0.77;;;;;;;4.84;73.82;95811.63;2071735;28;20225;-66
2024/03/24 08:09:44;;;;;;;2.17;0.87;;;;;;;4.84;75.62;95802.13;2071604;28;20210;-65
2024/03/24 08:10:45;;;;;;;2.80;1.20;;;;;;;4.93;75.86;95798.38;2064782;28;20213;-65
2024/03/24 08:11:45;;;;;;;3.83;1.17;;;;;;;4.97;75.90;95807.69;2065168;28;20218;-66
2024/03/24 08:12:46;;;;;;;4.17;1.10;;;;;;;4.99;74.62;95792.13;2063834;28;20221;-66
2024/03/24 08:13:48;;;;;;;3.92;0.90;;;;;;;5.14;73.54;95814.88;2065270;28;20641;-66
2024/03/24 08:14:48;;;;;;;3.10;1.55;;;;;;;5.11;71.44;95802.03;2073853;28;20194;-66
2024/03/24 08:15:49;;;;;;;3.63;0.80;;;;;;;4.82;72.14;95810.84;2072545;28;20210;-66
2024/03/24 08:16:49;;;;;;;1.70;1.00;;;;;;;4.66;72.28;95820.84;2072629;28;21053;-65
2024/03/24 08:17:50;;;;;;;5.53;1.30;;;;;;;4.68;73.24;95809.56;2065033;28;20208;-66
2024/03/24 08:18:50;;;;;;;4.00;1.90;;;;;;;4.72;73.84;95811.16;2064522;28;20233;-64
2024/03/24 08:19:53;;;;;;;4.87;1.33;;;;;;;4.69;74.04;95806.09;2063864;28;20212;-66
2024/03/24 08:20:55;;;;;;;5.80;1.10;;;;;;;4.54;74.13;95814.38;2055597;28;20243;-66
2024/03/24 08:21:56;;;;;;;5.82;1.65;;;;;;;4.49;73.29;95814.53;2073737;28;20217;-67
2024/03/24 08:22:57;;;;;;;2.67;1.60;;;;;;;4.56;72.77;95812.59;2079748;28;20759;-67
2024/03/24 08:23:57;;;;;;;2.70;1.13;;;;;;;4.48;73.50;95812.84;2062960;28;20208;-67
2024/03/24 08:24:57;;;;;;;5.90;1.33;;;;;;;4.40;73.39;95807.91;2057517;28;20267;-66
2024/03/24 08:25:58;;;;;;;2.83;1.23;;;;;;;4.24;73.48;95807.59;2056195;28;20210;-66
2024/03/24 08:26:59;;;;;;;2.03;0.90;;;;;;;4.24;73.94;95810.19;2063950;28;20222;-68
2024/03/24 08:27:59;;;;;;;4.90;1.30;;;;;;;4.36;74.29;95808.09;2066727;28;20711;-67
2024/03/24 08:28:59;;;;;;;6.57;1.90;;;;;;;4.44;73.92;95813.84;2069284;28;20210;-67
2024/03/24 08:30:00;;;;;;;3.20;1.43;;;;;;;4.53;73.61;95804.94;2069163;28;20205;-67
2024/03/24 08:31:01;;;;;;;3.17;1.43;;;;;;;4.62;74.07;95814.97;2064280;28;20682;-67
2024/03/24 08:32:01;;;;;;;4.33;1.30;;;;;;;4.81;73.68;95817.75;2066897;28;20284;-67
2024/03/24 08:33:02;;;;;;;5.23;1.47;;;;;;;4.96;73.21;95810.34;2052855;28;20199;-67
2024/03/24 08:34:03;;;;;;;4.37;1.23;;;;;;;5.03;71.09;95810.06;2054605;28;20448;-68
2024/03/24 08:35:04;;;;;;;9.97;1.60;;;;;;;5.19;70.48;95809.50;2060352;28;20448;-67
2024/03/24 08:36:07;;;;;;;6.72;1.02;;;;;;;5.30;70.74;95814.31;2061037;28;20275;-68
2024/03/24 08:37:08;;;;;;;5.68;1.30;;;;;;;5.58;70.36;95810.69;2055195;28;20226;-67
2024/03/24 08:38:09;;;;;;;5.27;1.67;;;;;;;5.77;68.98;95819.41;2063580;28;20668;-67
2024/03/24 08:39:09;;;;;;;3.23;1.13;;;;;;;5.68;69.36;95823.22;2063764;28;20270;-67
2024/03/24 08:40:11;;;;;;;6.80;1.20;;;;;;;5.58;69.23;95821.03;2054886;28;20811;-68
2024/03/24 08:41:13;;;;;;;3.90;1.08;;;;;;;5.17;69.50;95801.81;2055778;28;20222;-67
2024/03/24 08:42:14;;;;;;;7.07;1.00;;;;;;;5.06;70.46;95822.06;2054292;28;20226;-67
2024/03/24 08:43:15;;;;;;;2.33;1.08;;;;;;;5.06;70.71;95819.47;2059319;28;20222;-67
2024/03/24 08:44:15;;;;;;;3.17;1.20;;;;;;;4.79;71.14;95823.91;2047869;28;20208;-69
2024/03/24 08:45:17;;;;;;;2.45;1.10;;;;;;;4.60;71.12;95821.94;2055850;28;20456;-67
2024/03/24 08:46:18;;;;;;;5.50;1.40;;;;;;;4.52;72.18;95822.19;2067014;28;20210;-66
2024/03/24 08:47:18;;;;;;;3.00;1.10;;;;;;;4.46;72.58;95819.81;2058411;28;20268;-66
2024/03/24 08:48:19;;;;;;;3.43;1.20;;;;;;;4.73;72.83;95830.94;2064624;28;21121;-67
2024/03/24 08:49:20;;;;;;;5.17;1.27;;;;;;;4.67;71.98;95827.72;2052647;28;20439;-67
2024/03/24 08:50:20;;;;;;;3.00;1.00;;;;;;;4.81;72.65;95819.50;2053205;28;20315;-67
2024/03/24 08:51:21;;;;;;;10.07;2.63;;;;;;;4.67;72.48;95838.94;2059102;28;20811;-67
2024/03/24 08:52:22;;;;;;;7.80;1.37;;;;;;;4.40;73.40;95825.19;2057704;28;20222;-67
2024/03/24 08:53:22;;;;;;;3.00;1.20;;;;;;;4.32;73.38;95835.78;2051502;28;20274;-67
2024/03/24 08:54:23;;;;;;;4.80;1.40;;;;;;;4.21;73.14;95837.88;2052038;28;20446;-67
2024/03/24 08:55:27;;;;;;;5.60;1.10;;;;;;;4.11;73.38;95845.06;2055717;28;20215;-67
2024/03/24 08:56:28;;;;;;;5.13;1.23;;;;;;;4.05;73.74;95835.78;2047079;28;20216;-67
2024/03/24 08:57:29;;;;;;;3.03;1.27;;;;;;;4.02;74.25;95829.84;2044312;28;20242;-66
2024/03/24 09:02:19;;;;;;;9.57;1.58;;;;;;;3.85;75.26;95828.66;2102319;27;20610;-67
2024/03/24 09:04:26;;;;;;;3.85;1.35;;;;;;;4.07;75.31;95843.47;2099671;27;20535;-66
2024/03/24 09:07:56;;;;;;;13.93;1.77;;;;;;;3.75;75.39;95833.25;2085829;28;21041;-66
2024/03/24 09:08:56;;;;;;;8.20;1.70;;;;;;;3.93;75.40;95839.56;2089003;28;20878;-67
2024/03/24 09:09:57;;;;;;;5.27;1.50;;;;;;;4.02;75.96;95835.84;2076079;28;20655;-67
2024/03/24 09:14:14;;;;;;;6.05;1.60;;;;;;;3.90;75.45;95829.34;2084189;28;20561;-67
2024/03/24 09:28:31;;;;;;;4.95;1.70;;;;;;;3.89;78.08;95850.06;2106593;27;20587;-67
2024/03/24 09:30:29;;;;;;;3.15;1.25;;;;;;;4.09;77.11;95827.03;2102289;27;20567;-67
2024/03/24 09:31:30;;;;;;;8.23;1.80;;;;;;;4.11;76.98;95845.06;2105572;28;20220;-66
2024/03/24 09:44:30;;;;;;;5.47;1.33;;;;;;;3.84;77.87;95844.19;2083290;28;20570;-67
2024/03/24 09:46:29;;;;;;;4.95;2.38;;;;;;;4.02;78.13;95846.19;2088844;27;21101;-66
2024/03/24 09:47:33;;;;;;;3.72;1.40;;;;;;;3.99;77.30;95827.38;2080571;28;20270;-67
2024/03/24 09:48:35;;;;;;;6.60;1.58;;;;;;;4.55;76.70;95826.41;2073735;28;20209;-67
2024/03/24 09:49:36;;;;;;;3.22;1.17;;;;;;;4.91;75.19;95836.38;2077808;28;20208;-67
2024/03/24 09:50:38;;;;;;;4.75;1.20;;;;;;;4.68;74.93;95832.84;2077765;28;20512;-67
2024/03/24 09:51:39;;;;;;;3.58;1.33;;;;;;;4.85;75.11;95823.66;2077230;28;20275;-67
2024/03/24 09:52:42;;;;;;;2.53;1.43;;;;;;;4.97;75.27;95804.28;2080846;28;20208;-67
2024/03/24 09:53:43;;;;;;;4.80;1.45;;;;;;;5.28;74.44;95824.72;2080904;28;20800;-64
2024/03/24 09:54:43;;;;;;;3.07;1.10;;;;;;;6.17;72.26;95824.81;2083348;28;20393;-64
2024/03/24 09:55:44;;;;;;;13.17;1.77;;;;;;;6.53;71.23;95826.81;2073867;28;20320;-63
2024/03/24 09:56:45;;;;;;;3.27;1.33;;;;;;;6.91;70.23;95832.13;2077348;28;20229;-64
2024/03/24 09:57:46;;;;;;;5.40;1.15;;;;;;;7.03;69.59;95815.16;2078048;28;20504;-64
2024/03/24 09:58:46;;;;;;;4.07;1.70;;;;;;;6.75;70.11;95829.34;2082706;28;20746;-65
2024/03/24 09:59:48;;;;;;;8.23;1.53;;;;;;;6.52;70.95;95812.97;2077908;28;20517;-64
2024/03/24 10:00:49;;;;;;;5.07;1.23;;;;;;;5.70;71.16;95818.81;2078246;28;20243;-65
2024/03/24 10:01:51;;;;;;;4.77;1.57;;;;;;;5.38;72.93;95836.44;2077943;28;20273;-64
2024/03/24 10:02:52;;;;;;;4.97;1.23;;;;;;;5.48;74.31;95833.47;2074451;28;20213;-64
2024/03/24 10:03:53;;;;;;;11.75;1.98;;;;;;;5.30;73.94;95835.84;2075178;28;20243;-65
2024/03/24 10:04:57;;;;;;;5.50;2.10;;;;;;;5.30;74.94;95828.09;2083016;28;20258;-64
2024/03/24 10:06:00;;;;;;;7.55;2.05;;;;;;;5.05;74.11;95833.31;2074192;28;20222;-65
2024/03/24 10:07:00;;;;;;;6.85;1.65;;;;;;;4.86;75.03;95825.34;2080420;28;20228;-64
2024/03/24 10:08:01;;;;;;;7.83;2.10;;;;;;;5.06;75.09;95817.72;2073249;28;20205;-63
2024/03/24 10:09:04;;;;;;;9.40;1.75;;;;;;;5.04;74.46;95826.44;2077469;28;20314;-64
2024/03/24 10:10:06;;;;;;;2.80;1.40;;;;;;;5.15;73.44;95824.31;2078320;28;20209;-64
2024/03/24 10:11:27;;;;;;;4.22;1.52;;;;;;;5.67;73.66;95820.69;2073554;28;20209;-63
2024/03/24 10:12:27;;;;;;;5.43;1.70;;;;;;;5.87;73.13;95818.16;2070610;28;20225;-64
2024/03/24 10:13:42;;;;;;;4.03;1.30;;;;;;;5.89;72.76;95813.75;2069572;28;20202;-64
2024/03/24 10:14:44;;;;;;;2.78;1.08;;;;;;;5.84;72.92;95825.19;2063202;28;20201;-64
2024/03/24 10:15:44;;;;;;;3.22;1.40;;;;;;;5.69;71.94;95814.53;2061862;28;20215;-64
2024/03/24 10:16:45;;;;;;;7.87;1.20;;;;;;;5.58;72.82;95827.06;2071719;28;20217;-65
2024/03/24 10:17:45;;;;;;;3.63;1.27;;;;;;;5.55;73.06;95822.00;2077692;28;20609;-64
2024/03/24 10:18:46;;;;;;;6.63;1.60;;;;;;;5.47;73.28;95822.28;2077648;28;20678;-63
2024/03/24 10:19:48;;;;;;;3.87;1.40;;;;;;;5.60;72.80;95821.81;2078812;28;20220;-64
2024/03/24 10:20:49;;;;;;;5.43;1.17;;;;;;;5.60;72.71;95806.28;2074331;28;20443;-63
2024/03/24 10:21:51;;;;;;;8.13;1.40;;;;;;;5.59;71.78;95823.56;2071013;28;20291;-69
2024/03/24 10:22:56;;;;;;;5.03;1.13;;;;;;;5.81;72.16;95812.38;2069805;28;20956;-68
2024/03/24 10:23:59;;;;;;;3.92;1.58;;;;;;;6.07;71.44;95813.97;2077913;28;20213;-67
2024/03/24 10:25:00;;;;;;;4.63;1.75;;;;;;;5.84;71.64;95817.44;2061835;28;20273;-68
2024/03/24 10:26:00;;;;;;;5.15;1.20;;;;;;;5.60;72.62;95808.84;2069680;28;20241;-68
2024/03/24 10:27:01;;;;;;;9.53;1.50;;;;;;;5.75;72.70;95821.22;2068198;28;20222;-68
2024/03/24 10:28:02;;;;;;;5.07;2.07;;;;;;;5.81;71.70;95820.16;2054656;28;20254;-68
2024/03/24 10:29:04;;;;;;;4.73;1.87;;;;;;;6.01;71.11;95814.22;2067343;28;20241;-68
2024/03/24 10:30:05;;;;;;;2.55;1.02;;;;;;;5.83;71.53;95821.78;2069434;28;20266;-69
2024/03/24 10:31:07;;;;;;;18.52;1.73;;;;;;;5.56;72.00;95815.91;2069897;28;20217;-68
2024/03/24 10:32:10;;;;;;;7.30;1.50;;;;;;;5.60;73.11;95814.03;2085416;28;20235;-68
2024/03/24 10:33:11;;;;;;;11.30;1.73;;;;;;;5.64;72.26;95813.88;2085124;28;20247;-68
2024/03/24 10:34:13;;;;;;;3.20;1.57;;;;;;;5.58;72.85;95819.28;2085975;28;20209;-68
2024/03/24 10:35:14;;;;;;;9.38;1.77;;;;;;;5.42;72.65;95818.16;2089598;28;20451;-68
2024/03/24 10:36:15;;;;;;;4.95;1.20;;;;;;;5.31;73.28;95819.41;2086413;28;20201;-68
2024/03/24 10:37:16;;;;;;;4.20;1.75;;;;;;;5.44;73.18;95824.16;2086047;28;20220;-68
2024/03/24 10:38:17;;;;;;;7.68;1.75;;;;;;;5.18;72.71;95808.69;2082464;28;20311;-68
2024/03/24 10:39:19;;;;;;;7.73;1.80;;;;;;;5.23;72.86;95811.06;2080615;28;20217;-68
2024/03/24 10:40:21;;;;;;;8.40;1.50;;;;;;;5.29;72.56;95808.28;2081735;28;20212;-66
2024/03/24 10:41:26;;;;;;;6.85;1.48;;;;;;;5.08;72.48;95796.97;2074374;28;20679;-70
2024/03/24 10:42:27;;;;;;;9.77;1.40;;;;;;;5.27;72.88;95814.41;2075811;28;20205;-67
2024/03/24 10:43:28;;;;;;;11.40;1.77;;;;;;;5.38;72.41;95810.53;2081232;28;20289;-67
2024/03/24 10:44:29;;;;;;;5.40;1.40;;;;;;;5.73;72.09;95797.97;2078221;28;20473;-67
2024/03/24 10:45:30;;;;;;;4.32;1.48;;;;;;;5.58;71.40;95801.16;2085108;28;20200;-68
2024/03/24 10:46:32;;;;;;;2.23;1.20;;;;;;;5.59;72.32;95808.03;2085170;28;20690;-67
2024/03/24 10:47:33;;;;;;;12.95;2.85;;;;;;;5.76;72.02;95788.41;2081491;28;20230;-68
2024/03/24 10:48:35;;;;;;;11.25;1.98;;;;;;;5.47;70.59;95806.75;2081048;28;20205;-67
2024/03/24 10:49:40;;;;;;;5.00;1.60;;;;;;;5.93;70.39;95795.50;2089929;28;20208;-69
2024/03/24 10:50:40;;;;;;;3.05;1.35;;;;;;;6.26;69.35;95787.28;2093390;28;20816;-69
2024/03/24 10:51:42;;;;;;;3.77;1.53;;;;;;;6.01;69.93;95785.72;2091055;28;20722;-69
2024/03/24 10:52:43;;;;;;;5.15;1.38;;;;;;;6.02;70.70;95811.56;2085920;28;20212;-69
2024/03/24 10:53:45;;;;;;;4.78;1.33;;;;;;;5.40;70.62;95803.53;2069729;28;20216;-69
2024/03/24 10:54:47;;;;;;;11.27;3.88;;;;;;;5.38;71.25;95800.19;2090760;28;20242;-70
2024/03/24 10:55:50;;;;;;;4.50;1.58;;;;;;;5.28;72.59;95783.31;2098045;28;20208;-69
2024/03/24 10:56:50;;;;;;;8.50;1.48;;;;;;;5.47;72.76;95799.00;2091921;28;20220;-69
2024/03/24 10:57:53;;;;;;;6.83;1.60;;;;;;;5.18;72.75;95797.47;2084546;28;20211;-70
2024/03/24 10:58:55;;;;;;;8.15;2.00;;;;;;;5.12;72.97;95795.97;2079460;28;20347;-69
2024/03/24 10:59:57;;;;;;;6.30;1.95;;;;;;;5.19;73.91;95804.34;2078827;28;20217;-69
2024/03/24 11:00:58;;;;;;;7.97;1.70;;;;;;;5.26;73.91;95794.59;2074595;28;20208;-69
2024/03/24 11:02:00;;;;;;;4.37;1.43;;;;;;;5.29;74.49;95797.91;2081375;28;20639;-69
2024/03/24 11:03:01;;;;;;;3.22;1.50;;;;;;;5.08;74.09;95807.31;2076062;28;20201;-69
2024/03/24 11:04:03;;;;;;;12.43;2.08;;;;;;;4.99;75.91;95808.50;2076027;28;20690;-69
2024/03/24 11:05:04;;;;;;;5.22;1.33;;;;;;;4.83;75.65;95809.94;2076225;28;20805;-70
2024/03/24 11:06:05;;;;;;;3.75;1.50;;;;;;;4.64;76.21;95791.63;2083878;28;20217;-70
2024/03/24 11:07:05;;;;;;;2.97;1.37;;;;;;;4.61;76.80;95815.88;2073320;28;20821;-69
2024/03/24 11:08:06;;;;;;;2.50;1.33;;;;;;;4.42;76.54;95807.88;2075638;28;20548;-69
2024/03/24 11:14:13;;;;;;;3.50;1.50;;;;;;;4.25;79.21;95801.53;2084377;28;20884;-69
2024/03/24 11:15:14;;;;;;;5.28;2.25;;;;;;;4.18;79.70;95807.81;2074238;28;20816;-70
2024/03/24 11:17:31;;;;;;;4.65;1.92;;;;;;;4.06;82.83;95818.53;2084286;28;21089;-71
2024/03/24 11:18:33;;;;;;;5.15;1.85;;;;;;;3.97;84.01;95805.91;2081459;28;20693;-69
2024/03/24 11:19:33;;;;;;;7.47;2.03;;;;;;;3.90;84.75;95806.09;2073055;28;20745;-69
2024/03/24 11:20:35;;;;;;;15.43;2.00;;;;;;;3.92;84.28;95804.31;2075225;28;20212;-69
2024/03/24 11:21:39;;;;;;;6.45;1.65;;;;;;;4.05;84.61;95799.59;2074335;28;20509;-70
2024/03/24 11:22:43;;;;;;;5.72;1.70;;;;;;;4.16;83.28;95803.56;2074658;28;20212;-70
2024/03/24 11:23:47;;;;;;;5.45;1.50;;;;;;;4.12;81.87;95792.50;2071871;28;20197;-69
2024/03/24 11:24:47;;;;;;;7.18;1.60;;;;;;;4.53;81.75;95802.34;2074673;28;20221;-68
2024/03/24 11:25:54;;;;;;;3.83;1.70;;;;;;;4.55;81.80;95793.63;2072485;28;20624;-68
2024/03/24 11:26:58;;;;;;;4.07;1.88;;;;;;;4.50;83.04;95787.78;2073654;28;20220;-68
2024/03/24 11:27:58;;;;;;;5.85;1.70;;;;;;;4.51;80.94;95789.47;2079377;28;20217;-68
2024/03/24 11:28:59;;;;;;;8.10;2.37;;;;;;;4.97;79.41;95787.00;2081157;28;20205;-68
2024/03/24 11:29:59;;;;;;;6.33;1.80;;;;;;;5.22;78.84;95796.47;2073125;28;20363;-69
2024/03/24 11:31:00;;;;;;;4.80;1.50;;;;;;;5.28;79.03;95779.84;2076277;28;20201;-68
2024/03/24 11:32:00;;;;;;;5.17;1.67;;;;;;;5.40;77.73;95782.81;2070382;28;20216;-68
2024/03/24 11:33:01;;;;;;;4.87;2.40;;;;;;;5.29;77.91;95782.38;2070500;28;20199;-68
2024/03/24 11:34:11;;;;;;;5.22;2.03;;;;;;;5.31;77.78;95778.00;2073794;28;20209;-68
2024/03/24 11:35:12;;;;;;;7.78;2.00;;;;;;;5.46;78.41;95773.13;2073341;28;20244;-68
2024/03/24 11:36:16;;;;;;;9.63;2.47;;;;;;;5.23;78.32;95764.47;2072029;28;20205;-69
2024/03/24 11:37:17;;;;;;;7.57;2.00;;;;;;;5.26;77.91;95776.47;2079822;28;20236;-68
2024/03/24 11:38:17;;;;;;;3.57;1.30;;;;;;;5.11;77.45;95783.09;2073563;28;20249;-68
2024/03/24 11:39:19;;;;;;;3.30;1.20;;;;;;;4.96;77.90;95779.31;2073719;28;20205;-68
2024/03/24 11:40:24;;;;;;;3.00;1.40;;;;;;;4.97;78.94;95786.16;2072676;28;20655;-69
2024/03/24 11:41:24;;;;;;;9.13;1.50;;;;;;;5.00;79.29;95781.72;2063259;28;20285;-68
2024/03/24 11:42:29;;;;;;;8.70;2.07;;;;;;;4.95;78.78;95791.41;2065686;28;20290;-69
2024/03/24 11:43:29;;;;;;;8.35;1.70;;;;;;;4.95;78.71;95781.06;2075637;28;20221;-68
2024/03/24 11:44:33;;;;;;;7.77;1.60;;;;;;;4.94;79.03;95789.72;2073214;28;20240;-68
2024/03/24 11:45:35;;;;;;;3.53;1.75;;;;;;;4.95;79.21;95777.59;2073625;28;20651;-68
2024/03/24 11:46:36;;;;;;;5.43;1.30;;;;;;;4.78;79.31;95770.47;2073824;28;20216;-69
2024/03/24 11:47:40;;;;;;;3.90;1.60;;;;;;;4.65;78.48;95773.47;2071782;28;20206;-68
2024/03/24 11:48:41;;;;;;;4.78;1.80;;;;;;;4.63;78.63;95777.84;2072462;28;20789;-68
2024/03/24 11:49:46;;;;;;;9.63;2.20;;;;;;;4.68;79.56;95768.19;2069878;28;20201;-69
2024/03/24 11:50:47;;;;;;;10.65;3.78;;;;;;;4.79;79.88;95767.81;2073274;28;20253;-68
2024/03/24 11:51:48;;;;;;;15.43;6.20;;;;;;;4.84;80.02;95765.06;2070827;28;20296;-69
2024/03/24 11:52:50;;;;;;;7.05;3.10;;;;;;;4.83;79.49;95766.78;2071783;28;20465;-69
2024/03/24 11:53:52;;;;;;;10.55;3.45;;;;;;;4.90;79.33;95765.69;2077182;28;20228;-69
2024/03/24 11:54:53;;;;;;;13.30;4.68;;;;;;;5.00;79.47;95760.16;2072587;28;20216;-68
2024/03/24 11:55:55;;;;;;;13.05;4.95;;;;;;;5.14;79.78;95757.06;2076323;28;20546;-69
2024/03/24 11:56:57;;;;;;;4.20;1.33;;;;;;;4.92;78.01;95769.97;2069175;28;20221;-69
2024/03/24 11:57:58;;;;;;;4.22;1.77;;;;;;;4.96;78.87;95774.97;2075340;28;20197;-68
2024/03/24 11:58:58;;;;;;;4.18;1.45;;;;;;;4.83;77.95;95769.38;2070905;28;20240;-69
2024/03/24 12:00:05;;;;;;;5.37;2.27;;;;;;;4.80;78.71;95766.91;2072751;28;20237;-68
2024/03/24 12:01:08;;;;;;;4.55;2.08;;;;;;;4.78;78.21;95763.53;2073260;28;20205;-69
2024/03/24 12:02:08;;;;;;;7.47;1.60;;;;;;;4.75;77.57;95768.84;2071580;28;20230;-69
2024/03/24 12:03:09;;;;;;;4.30;1.40;;;;;;;4.68;78.12;95765.59;2069907;28;20213;-69
2024/03/24 12:08:43;;;;;;;5.10;1.15;;;;;;;4.20;80.14;95771.56;2095354;27;21049;-73
2024/03/24 12:11:05;;;;;;;4.38;1.38;;;;;;;4.00;81.64;95767.91;2083678;28;21057;-73
2024/03/24 12:13:38;;;;;;;2.92;1.25;;;;;;;3.97;84.36;95756.81;2100824;27;20750;-73
2024/03/24 12:14:38;;;;;;;5.15;1.98;;;;;;;3.98;84.45;95758.53;2102287;28;20676;-72
2024/03/24 12:17:03;;;;;;;3.40;1.23;;;;;;;3.74;82.17;95746.31;2083158;28;21037;-73
2024/03/24 12:19:15;;;;;;;4.05;1.52;;;;;;;3.84;82.30;95753.81;2100420;27;20599;-73
2024/03/24 12:20:15;;;;;;;8.27;2.73;;;;;;;3.88;82.75;95755.38;2103262;28;20671;-72
2024/03/24 12:22:17;;;;;;;12.65;1.92;;;;;;;3.97;83.90;95747.31;2076888;28;20562;-73
2024/03/24 12:23:18;;;;;;;4.03;1.10;;;;;;;4.01;83.93;95748.06;2073700;28;20647;-73
2024/03/24 12:24:19;;;;;;;7.55;2.00;;;;;;;4.00;84.02;95738.63;2085297;28;20204;-73
2024/03/24 12:25:19;;;;;;;4.50;1.63;;;;;;;4.00;84.12;95743.78;2083790;28;20249;-73
2024/03/24 12:26:21;;;;;;;4.10;1.60;;;;;;;4.09;84.88;95733.16;2070103;28;20712;-73
2024/03/24 12:27:21;;;;;;;7.60;2.80;;;;;;;4.01;83.99;95766.16;2070202;28;20232;-73
2024/03/24 12:28:22;;;;;;;8.93;3.20;;;;;;;4.47;84.20;95749.09;2062333;28;20210;-72
2024/03/24 12:29:22;;;;;;;2.93;1.30;;;;;;;4.54;83.24;95745.41;2060712;28;20210;-73
2024/03/24 12:30:25;;;;;;;3.60;1.60;;;;;;;4.65;85.27;95749.38;2055748;28;20219;-72
2024/03/24 12:31:26;;;;;;;3.97;1.80;;;;;;;4.43;84.50;95741.50;2071997;28;20228;-72
2024/03/24 12:32:28;;;;;;;4.10;1.48;;;;;;;4.32;84.48;95742.72;2073223;28;20259;-73
2024/03/24 12:33:29;;;;;;;3.85;2.05;;;;;;;4.18;84.85;95744.94;2056950;28;20776;-72
2024/03/24 12:52:12;;;;;;;3.13;1.20;;;;;;;2.01;100.00;95800.19;2083606;28;21158;-64
2024/03/24 12:53:13;;;;;;;6.50;2.87;;;;;;;2.29;100.00;95799.50;2077911;28;20208;-64
2024/03/24 12:54:17;;;;;;;3.40;1.80;;;;;;;2.70;100.00;95797.53;2069652;28;20801;-63
2024/03/24 12:55:18;;;;;;;5.18;2.08;;;;;;;3.40;100.00;95795.59;2073649;28;20212;-64
2024/03/24 12:56:20;;;;;;;4.83;2.93;;;;;;;4.19;100.00;95793.13;2061297;28;20208;-64
2024/03/24 12:57:20;;;;;;;8.95;2.50;;;;;;;4.47;99.77;95785.31;2061576;28;20584;-64
2024/03/24 12:58:23;;;;;;;2.60;1.60;;;;;;;4.44;98.91;95794.91;2065638;28;20233;-63
2024/03/24 12:59:24;;;;;;;4.50;2.15;;;;;;;4.65;96.79;95789.00;2069594;28;20209;-63
2024/03/24 13:00:25;;;;;;;9.40;1.87;;;;;;;4.09;95.09;95790.03;2070368;28;20918;-63
2024/03/24 13:01:27;;;;;;;3.55;1.67;;;;;;;4.04;96.47;95791.91;2065846;28;21201;-64
2024/03/24 13:02:28;;;;;;;4.18;1.58;;;;;;;4.94;95.40;95781.09;2069466;28;20218;-64
2024/03/24 13:03:28;;;;;;;4.00;2.13;;;;;;;5.03;94.86;95784.19;2068714;28;20208;-64
2024/03/24 13:04:29;;;;;;;3.20;1.60;;;;;;;4.96;94.56;95777.53;2065464;28;20206;-64
2024/03/24 13:05:29;;;;;;;2.60;1.40;;;;;;;4.63;96.04;95770.09;2066504;28;20209;-63
2024/03/24 13:06:34;;;;;;;4.50;1.30;;;;;;;4.30;94.77;95782.44;2066591;28;20213;-64
2024/03/24 13:07:34;;;;;;;3.60;1.60;;;;;;;4.87;94.45;95775.31;2068016;28;20281;-64
2024/03/24 13:08:36;;;;;;;3.77;1.33;;;;;;;4.79;92.81;95780.75;2063793;28;20212;-64
2024/03/24 13:09:36;;;;;;;3.00;1.40;;;;;;;4.37;91.83;95774.44;2067110;28;20794;-64
2024/03/24 13:10:37;;;;;;;4.53;1.60;;;;;;;4.24;94.83;95770.56;2066249;28;20240;-64
2024/03/24 13:11:38;;;;;;;8.20;2.00;;;;;;;4.69;96.05;95790.56;2062737;28;20218;-63
2024/03/24 13:12:38;;;;;;;2.83;1.40;;;;;;;4.80;91.84;95779.00;2065496;28;20272;-64
2024/03/24 13:13:42;;;;;;;2.60;1.20;;;;;;;4.56;92.93;95786.75;2065731;28;20459;-64
2024/03/24 13:14:42;;;;;;;5.65;1.67;;;;;;;4.40;93.87;95776.91;2069075;28;20213;-64
2024/03/24 13:17:06;;;;;;;4.43;1.63;;;;;;;4.28;96.68;95790.25;2095034;28;20564;-64
2024/03/24 13:18:12;;;;;;;3.50;1.40;;;;;;;4.28;95.91;95791.97;2090225;28;20413;-63
2024/03/24 13:19:23;;;;;;;8.13;1.33;;;;;;;4.23;94.75;95774.06;2085956;28;20204;-63
2024/03/24 13:20:23;;;;;;;8.20;1.35;;;;;;;4.29;94.92;95791.94;2080006;28;20252;-63